Portada
METAR-TAF:

METAR-TAF

Aeroports :

Ishigaki, Japó

latitud: 24-20N, longitud: 124-10E, altitud: 6 m

Observació

L'informe es va fer fa 28 minuts, a les 07:00 UTC
Vent 8 kt del Est/Sud-Est
Temperatura 24°C
Humitat 74%
Pressió 1016 hPa
Visibilitat 10 km o més
Escasses núvols a una alçada de 1900 ft
Cel ennuvolat

METAR: ROIG 280700Z 12008KT 9999 FEW019 BKN/// 24/19 Q1016

Hora: 16:28 (07:28 UTC)

Pronòstic

L'informe es va fer fa 2 hores i 16 minuts, a les 05:12 UTC
Pronòstic vàlid del 28 a les 06 UTC al 29 a les 12 UTC
Vent 7 kt del Sud/Sud-Est
Visibilitat 10 km o més
Escasses núvols a una alçada de 2500 ft

TAF: ROIG 280512Z 2806/2912 15007KT 9999 FEW025

Observacions i pronòstics meteorològics de més de 4000 aeroports (METAR i TAF).

Les estacions disponibles són els punts grocs i vermells al mapa.

Posi el ratolí al punt desitjat per veure el nom de l'estació.

Feu clic per veure les observacions i els pronòstics meteorològics.

Per canviar el mapa: feu clic els botons verds amb una creu de color negre per apropar; al botó verd amb un guió per allunyar la imatge; o en les fletxes verdes per a mapes adjacents.


METAR-TAF: